Flight Track Log - Related Links

Times and Time Zones

All times are in EDT time to prevent confusion due to time zone crossing. See the EJA951 flight status page for this flight to view local times or setup timezone preferences in your user account.

Time Position Orientation Groundspeed Altitude Reporting Facility
EDT Latitude Longitude Course Direction KTS MPH feet Rate Location/Type
Mon 04:56:59 PM 37.6500 -122.3333 31° Northeast 214 246 3,400  Level Northern Cal TRACON
Mon 04:57:53 PM 37.7000 -122.2833 38° Northeast 272 313 7,600 3,800 Climbing Northern Cal TRACON
Mon 04:58:59 PM 37.7833 -122.2167 32° Northeast 317 365 11,000 1,606 Climbing Northern Cal TRACON
Mon 05:00:00 PM 37.8833 -122.1500 28° Northeast 404 465 11,000  Level Northern Cal TRACON
Mon 05:00:59 PM 37.9833 -122.0833 28° Northeast 424 488 11,000  Level Northern Cal TRACON
Mon 05:01:59 PM 38.0833 -122.0000 33° Northeast 418 481 11,000  Level Northern Cal TRACON
Mon 05:02:00 PM 37.9695 -122.0937 31° Northeast  Level FlightAware Approximate
Mon 05:02:59 PM 38.1667 -121.9333 32° Northeast 403 464 11,000  Level Northern Cal TRACON
Mon 05:03:59 PM 38.2500 -121.8500 38° Northeast 390 449 10,900  Descending Northern Cal TRACON
Mon 05:04:59 PM 38.3500 -121.7667 33° Northeast 388 447 11,000 50 Climbing Northern Cal TRACON
Mon 05:05:59 PM 38.4500 -121.7167 21° North 377 434 11,000 -600 Level Northern Cal TRACON
Mon 05:06:59 PM 38.5333 -121.7000 North 307 353 9,800 -1,550 Descending Northern Cal TRACON
Mon 05:07:59 PM 38.6167 -121.7000 360° North 294 338 7,900 -1,800 Descending Northern Cal TRACON
Mon 05:08:29 PM 38.6500 -121.7011 359° North 289 333 7,100 -1,385 Descending Oakland Center
Mon 05:09:30 PM 38.7275 -121.7094 355° North 281 323 5,800 -1,623 Descending Oakland Center
Mon 05:10:31 PM 38.7917 -121.6867 15° North 269 310 3,800 -1,854 Descending Oakland Center
Mon 05:11:33 PM 38.7964 -121.6136 85° East 226 260 2,000 -1,344 Descending Oakland Center
Mon 05:12:36 PM 38.7603 -121.5994 163° South 168 193 1,000 -829 Descending Oakland Center
Mon 05:13:36 PM 38.7211 -121.6000 181° South 150 173 300 -397 Descending Oakland Center
Mon 05:14:37 PM 38.6833 -121.6006 181° South 148 170 200 -98 Descending Oakland Center

Login

Don't have an account? Register now (free) for customized features, flight alerts, and more!